Time,TemperatureF,DewpointF,PressureIn,WindDirection,WindDirectionDegrees,WindSpeedMPH,WindSpeedGustMPH,Humidity,HourlyPrecipIn,Conditions,Clouds,dailyrainin,SoftwareType,DateUTC
2013-03-02 00:01:00,36.0,23.4,29.84,NW,325,2.0,6.0,60,0.00,,,0.00,Wunderground v.1.15,2013-03-02 05:01:00,
2013-03-02 00:02:00,36.0,23.4,29.84,WNW,299,2.0,6.0,60,0.00,,,0.00,Wunderground v.1.15,2013-03-02 05:02:00,
2013-03-02 00:03:00,35.9,23.4,29.84,NW,311,2.0,6.0,60,0.00,,,0.00,Wunderground v.1.15,2013-03-02 05:03:00,
2013-03-02 00:08:00,35.9,23.4,29.84,NNW,343,3.0,8.0,60,0.00,,,0.00,Wunderground v.1.15,2013-03-02 05:08:00,
2013-03-02 00:13:00,35.8,23.3,29.84,NW,311,3.0,10.0,60,0.00,,,0.00,Wunderground v.1.15,2013-03-02 05:13:00,
2013-03-02 00:18:00,35.8,22.9,29.84,NW,308,2.0,10.0,59,0.00,,,0.00,Wunderground v.1.15,2013-03-02 05:18:00,
2013-03-02 00:23:00,35.6,22.7,29.84,NW,322,3.0,4.0,59,0.00,,,0.00,Wunderground v.1.15,2013-03-02 05:23:00,
2013-03-02 00:28:00,35.6,22.7,29.84,NNW,330,3.0,7.0,59,0.00,,,0.00,Wunderground v.1.15,2013-03-02 05:28:00,
2013-03-02 00:33:00,35.5,22.6,29.84,NW,319,3.0,8.0,59,0.00,,,0.00,Wunderground v.1.15,2013-03-02 05:33:00,
2013-03-02 00:39:00,35.5,22.6,29.84,West,274,2.0,8.0,59,0.00,,,0.00,Wunderground v.1.15,2013-03-02 05:39:00,
2013-03-02 00:44:00,35.3,22.4,29.84,NW,320,2.0,4.0,59,0.00,,,0.00,Wunderground v.1.15,2013-03-02 05:44:00,
2013-03-02 00:49:00,35.3,22.8,29.84,NNW,337,3.0,9.0,60,0.00,,,0.00,Wunderground v.1.15,2013-03-02 05:49:00,
2013-03-02 00:54:00,35.2,22.7,29.84,WNW,299,3.0,7.0,60,0.00,,,0.00,Wunderground v.1.15,2013-03-02 05:54:00,
2013-03-02 00:59:00,35.2,22.7,29.84,NW,309,3.0,7.0,60,0.00,,,0.00,Wunderground v.1.15,2013-03-02 05:59:00,
2013-03-02 01:06:00,35.0,22.5,29.84,NW,322,2.0,6.0,60,0.00,,,0.00,Wunderground v.1.15,2013-03-02 06:06:00,
2013-03-02 01:11:00,35.0,22.5,29.84,NW,316,1.0,1.0,60,0.00,,,0.00,Wunderground v.1.15,2013-03-02 06:11:00,
2013-03-02 01:16:00,34.9,22.4,29.84,WNW,298,2.0,10.0,60,0.00,,,0.00,Wunderground v.1.15,2013-03-02 06:16:00,
2013-03-02 01:21:00,34.7,22.2,29.84,NW,315,3.0,4.0,60,0.00,,,0.00,Wunderground v.1.15,2013-03-02 06:21:00,
2013-03-02 01:26:00,34.7,22.6,29.84,WNW,298,2.0,4.0,61,0.00,,,0.00,Wunderground v.1.15,2013-03-02 06:26:00,
2013-03-02 01:32:00,34.6,22.5,29.84,NW,313,2.0,11.0,61,0.00,,,0.00,Wunderground v.1.15,2013-03-02 06:32:00,
2013-03-02 01:37:00,34.6,22.5,29.84,NW,308,2.0,11.0,61,0.00,,,0.00,Wunderground v.1.15,2013-03-02 06:37:00,
2013-03-02 01:42:00,34.4,22.3,29.84,NW,304,1.0,2.0,61,0.00,,,0.00,Wunderground v.1.15,2013-03-02 06:42:00,
2013-03-02 01:47:00,34.4,22.3,29.84,NW,319,1.0,11.0,61,0.00,,,0.00,Wunderground v.1.15,2013-03-02 06:47:00,
2013-03-02 01:52:00,34.3,22.2,29.84,NNW,346,2.0,7.0,61,0.00,,,0.00,Wunderground v.1.15,2013-03-02 06:52:00,
2013-03-02 01:57:00,34.3,22.2,29.84,NW,326,2.0,2.0,61,0.00,,,0.00,Wunderground v.1.15,2013-03-02 06:57:00,
2013-03-02 02:02:00,34.1,22.0,29.84,NNW,329,1.0,6.0,61,0.00,,,0.00,Wunderground v.1.15,2013-03-02 07:02:00,
2013-03-02 02:08:00,34.0,22.3,29.84,NNW,343,2.0,6.0,62,0.00,,,0.00,Wunderground v.1.15,2013-03-02 07:08:00,
2013-03-02 02:13:00,34.0,22.3,29.84,West,277,1.0,2.0,62,0.00,,,0.00,Wunderground v.1.15,2013-03-02 07:13:00,
2013-03-02 02:19:00,33.8,22.1,29.84,WNW,287,1.0,4.0,62,0.00,,,0.00,Wunderground v.1.15,2013-03-02 07:19:00,
2013-03-02 02:26:00,33.7,22.1,29.84,North,349,2.0,6.0,62,0.00,,,0.00,Wunderground v.1.15,2013-03-02 07:26:00,
2013-03-02 02:31:00,33.5,21.9,29.83,WNW,285,1.0,1.0,62,0.00,,,0.00,Wunderground v.1.15,2013-03-02 07:31:00,
2013-03-02 02:36:00,33.5,22.2,29.83,NW,319,1.0,4.0,63,0.00,,,0.00,Wunderground v.1.15,2013-03-02 07:36:00,
2013-03-02 02:42:00,33.4,22.1,29.83,NW,325,1.0,4.0,63,0.00,,,0.00,Wunderground v.1.15,2013-03-02 07:42:00,
2013-03-02 02:47:00,33.1,21.9,29.83,NNW,329,1.0,2.0,63,0.00,,,0.00,Wunderground v.1.15,2013-03-02 07:47:00,
2013-03-02 02:53:00,33.1,22.2,29.83,NNW,329,1.0,1.0,64,0.00,,,0.00,Wunderground v.1.15,2013-03-02 07:53:00,
2013-03-02 02:59:00,32.8,22.0,29.83,NW,312,1.0,2.0,64,0.00,,,0.00,Wunderground v.1.15,2013-03-02 07:59:00,
2013-03-02 03:06:00,32.7,22.2,29.83,NW,315,1.0,1.0,65,0.00,,,0.00,Wunderground v.1.15,2013-03-02 08:06:00,
2013-03-02 03:12:00,32.7,22.2,29.83,WNW,296,1.0,1.0,65,0.00,,,0.00,Wunderground v.1.15,2013-03-02 08:12:00,
2013-03-02 03:17:00,32.5,22.0,29.83,WNW,299,0.0,2.0,65,0.00,,,0.00,Wunderground v.1.15,2013-03-02 08:17:00,
2013-03-02 03:23:00,32.4,22.3,29.83,NW,315,0.0,1.0,66,0.00,,,0.00,Wunderground v.1.15,2013-03-02 08:23:00,
2013-03-02 03:29:00,32.4,22.3,29.83,West,270,0.0,2.0,66,0.00,,,0.00,Wunderground v.1.15,2013-03-02 08:29:00,
2013-03-02 03:36:00,32.2,22.1,29.83,WNW,295,1.0,2.0,66,0.00,,,0.00,Wunderground v.1.15,2013-03-02 08:36:00,
2013-03-02 03:42:00,32.1,22.0,29.83,WNW,295,1.0,1.0,66,0.00,,,0.00,Wunderground v.1.15,2013-03-02 08:42:00,
2013-03-02 03:48:00,32.1,22.4,29.83,WNW,292,0.0,1.0,67,0.00,,,0.00,Wunderground v.1.15,2013-03-02 08:48:00,
2013-03-02 03:53:00,31.9,22.2,29.83,NW,306,0.0,1.0,67,0.00,,,0.00,Wunderground v.1.15,2013-03-02 08:53:00,
2013-03-02 03:59:00,31.9,22.2,29.84,NW,312,1.0,1.0,67,0.00,,,0.00,Wunderground v.1.15,2013-03-02 08:59:00,
2013-03-02 04:04:00,31.9,22.2,29.84,NW,318,1.0,2.0,67,0.00,,,0.00,Wunderground v.1.15,2013-03-02 09:04:00,
2013-03-02 04:09:00,31.8,22.1,29.84,North,0,1.0,4.0,67,0.00,,,0.00,Wunderground v.1.15,2013-03-02 09:09:00,
2013-03-02 04:16:00,31.8,22.1,29.83,NW,316,1.0,6.0,67,0.00,,,0.00,Wunderground v.1.15,2013-03-02 09:16:00,
2013-03-02 04:22:00,31.8,22.4,29.83,WNW,288,1.0,1.0,68,0.00,,,0.00,Wunderground v.1.15,2013-03-02 09:22:00,
2013-03-02 04:28:00,31.6,22.2,29.83,West,272,0.0,1.0,68,0.00,,,0.00,Wunderground v.1.15,2013-03-02 09:28:00,
2013-03-02 04:34:00,31.6,22.2,29.83,NW,306,1.0,1.0,68,0.00,,,0.00,Wunderground v.1.15,2013-03-02 09:34:00,
2013-03-02 04:39:00,31.5,22.1,29.83,WNW,289,1.0,4.0,68,0.00,,,0.00,Wunderground v.1.15,2013-03-02 09:39:00,
2013-03-02 04:46:00,31.5,22.1,29.83,NW,325,1.0,4.0,68,0.00,,,0.00,Wunderground v.1.15,2013-03-02 09:46:00,
2013-03-02 04:52:00,31.3,22.0,29.83,WNW,302,1.0,2.0,68,0.00,,,0.00,Wunderground v.1.15,2013-03-02 09:52:00,
2013-03-02 04:57:00,31.3,22.0,29.83,NNW,342,1.0,2.0,68,0.00,,,0.00,Wunderground v.1.15,2013-03-02 09:57:00,
2013-03-02 05:02:00,31.3,22.3,29.83,NNW,342,1.0,1.0,69,0.00,,,0.00,Wunderground v.1.15,2013-03-02 10:02:00,
2013-03-02 05:07:00,31.2,22.2,29.83,West,267,1.0,1.0,69,0.00,,,0.00,Wunderground v.1.15,2013-03-02 10:07:00,
2013-03-02 05:14:00,31.2,22.2,29.83,WNW,292,0.0,0.0,69,0.00,,,0.00,Wunderground v.1.15,2013-03-02 10:14:00,
2013-03-02 05:21:00,31.0,22.0,29.83,WNW,294,0.0,0.0,69,0.00,,,0.00,Wunderground v.1.15,2013-03-02 10:21:00,
2013-03-02 05:26:00,31.0,22.0,29.83,WNW,291,1.0,1.0,69,0.00,,,0.00,Wunderground v.1.15,2013-03-02 10:26:00,
2013-03-02 05:31:00,31.0,22.0,29.83,WNW,301,1.0,1.0,69,0.00,,,0.00,Wunderground v.1.15,2013-03-02 10:31:00,
2013-03-02 05:36:00,31.0,22.0,29.83,NW,313,0.0,1.0,69,0.00,,,0.00,Wunderground v.1.15,2013-03-02 10:36:00,
2013-03-02 05:42:00,30.9,22.3,29.83,WNW,301,0.0,4.0,70,0.00,,,0.00,Wunderground v.1.15,2013-03-02 10:42:00,
2013-03-02 05:47:00,30.9,22.3,29.83,NW,312,0.0,0.0,70,0.00,,,0.00,Wunderground v.1.15,2013-03-02 10:47:00,
2013-03-02 05:52:00,30.9,22.3,29.83,NW,309,0.0,4.0,70,0.00,,,0.00,Wunderground v.1.15,2013-03-02 10:52:00,
2013-03-02 05:57:00,30.7,22.1,29.83,NNW,333,1.0,1.0,70,0.00,,,0.00,Wunderground v.1.15,2013-03-02 10:57:00,
2013-03-02 06:03:00,30.7,22.1,29.83,North,353,1.0,2.0,70,0.00,,,0.00,Wunderground v.1.15,2013-03-02 11:03:00,
2013-03-02 06:08:00,30.7,22.1,29.83,NW,325,1.0,6.0,70,0.00,,,0.00,Wunderground v.1.15,2013-03-02 11:08:00,
2013-03-02 06:13:00,30.7,22.1,29.83,NW,311,1.0,1.0,70,0.00,,,0.00,Wunderground v.1.15,2013-03-02 11:13:00,
2013-03-02 06:19:00,30.7,22.1,29.84,NNW,329,0.0,6.0,70,0.00,,,0.00,Wunderground v.1.15,2013-03-02 11:19:00,
2013-03-02 06:26:00,30.7,22.1,29.84,NW,312,1.0,8.0,70,0.00,,,0.00,Wunderground v.1.15,2013-03-02 11:26:00,
2013-03-02 06:31:00,30.6,22.0,29.84,NW,308,1.0,4.0,70,0.00,,,0.00,Wunderground v.1.15,2013-03-02 11:31:00,
2013-03-02 06:37:00,30.6,21.6,29.84,NNW,343,2.0,4.0,69,0.00,,,0.00,Wunderground v.1.15,2013-03-02 11:37:00,
2013-03-02 06:42:00,30.6,21.6,29.84,NW,306,1.0,1.0,69,0.00,,,0.00,Wunderground v.1.15,2013-03-02 11:42:00,
2013-03-02 06:47:00,30.6,21.6,29.84,NW,325,1.0,4.0,69,0.00,,,0.00,Wunderground v.1.15,2013-03-02 11:47:00,
2013-03-02 06:52:00,30.6,21.6,29.84,NW,316,1.0,7.0,69,0.00,,,0.00,Wunderground v.1.15,2013-03-02 11:52:00,
2013-03-02 06:57:00,30.6,21.6,29.84,WNW,298,2.0,7.0,69,0.00,,,0.00,Wunderground v.1.15,2013-03-02 11:57:00,
2013-03-02 07:03:00,30.7,21.7,29.84,West,264,1.0,7.0,69,0.00,,,0.00,Wunderground v.1.15,2013-03-02 12:03:00,
2013-03-02 07:08:00,30.7,21.4,29.84,NW,311,1.0,7.0,68,0.00,,,0.00,Wunderground v.1.15,2013-03-02 12:08:00,
2013-03-02 07:13:00,30.7,21.4,29.84,NNW,336,0.0,1.0,68,0.00,,,0.00,Wunderground v.1.15,2013-03-02 12:13:00,
2013-03-02 07:18:00,30.7,21.4,29.84,NW,309,1.0,4.0,68,0.00,,,0.00,Wunderground v.1.15,2013-03-02 12:18:00,
2013-03-02 07:23:00,30.7,21.4,29.84,NNW,335,2.0,2.0,68,0.00,,,0.00,Wunderground v.1.15,2013-03-02 12:23:00,
2013-03-02 07:28:00,30.9,21.6,29.84,NNW,337,2.0,2.0,68,0.00,,,0.00,Wunderground v.1.15,2013-03-02 12:28:00,
2013-03-02 07:34:00,31.0,21.3,29.84,NNW,332,2.0,6.0,67,0.00,,,0.00,Wunderground v.1.15,2013-03-02 12:34:00,
2013-03-02 07:39:00,31.0,21.3,29.84,NNW,344,2.0,6.0,67,0.00,,,0.00,Wunderground v.1.15,2013-03-02 12:39:00,
2013-03-02 07:44:00,31.3,21.6,29.84,NW,319,2.0,7.0,67,0.00,,,0.00,Wunderground v.1.15,2013-03-02 12:44:00,
2013-03-02 07:49:00,31.5,21.8,29.84,WNW,287,3.0,7.0,67,0.00,,,0.00,Wunderground v.1.15,2013-03-02 12:49:00,
2013-03-02 07:54:00,31.8,22.1,29.84,West,274,2.0,6.0,67,0.00,,,0.00,Wunderground v.1.15,2013-03-02 12:54:00,
2013-03-02 07:59:00,32.1,22.0,29.84,North,353,3.0,13.0,66,0.00,,,0.00,Wunderground v.1.15,2013-03-02 12:59:00,
2013-03-02 08:06:00,32.4,22.3,29.84,WSW,239,4.0,9.0,66,0.00,,,0.00,Wunderground v.1.15,2013-03-02 13:06:00,
2013-03-02 08:11:00,32.7,22.6,29.84,North,0,3.0,4.0,66,0.00,,,0.00,Wunderground v.1.15,2013-03-02 13:11:00,
2013-03-02 08:16:00,32.8,22.3,29.85,WNW,299,4.0,6.0,65,0.00,,,0.00,Wunderground v.1.15,2013-03-02 13:16:00,
2013-03-02 08:21:00,32.9,22.0,29.85,NNW,330,4.0,8.0,64,0.00,,,0.00,Wunderground v.1.15,2013-03-02 13:21:00,
2013-03-02 08:26:00,33.1,22.2,29.85,NNW,329,4.0,8.0,64,0.00,,,0.00,Wunderground v.1.15,2013-03-02 13:26:00,
2013-03-02 08:32:00,33.2,22.0,29.85,North,350,4.0,7.0,63,0.00,,,0.00,Wunderground v.1.15,2013-03-02 13:32:00,
2013-03-02 08:37:00,33.2,22.0,29.85,NNW,339,6.0,10.0,63,0.00,,,0.00,Wunderground v.1.15,2013-03-02 13:37:00,
2013-03-02 08:42:00,33.4,22.1,29.85,North,0,5.0,5.0,63,0.00,,,0.00,Wunderground v.1.15,2013-03-02 13:42:00,
2013-03-02 08:47:00,33.4,22.1,29.85,NW,309,4.0,6.0,63,0.00,,,0.00,Wunderground v.1.15,2013-03-02 13:47:00,
2013-03-02 08:52:00,33.4,21.8,29.85,West,263,4.0,9.0,62,0.00,,,0.00,Wunderground v.1.15,2013-03-02 13:52:00,
2013-03-02 08:57:00,33.4,22.1,29.85,NNW,332,3.0,9.0,63,0.00,,,0.00,Wunderground v.1.15,2013-03-02 13:57:00,
2013-03-02 09:02:00,33.4,22.1,29.85,NNW,342,4.0,7.0,63,0.00,,,0.00,Wunderground v.1.15,2013-03-02 14:02:00,
2013-03-02 09:07:00,33.4,21.8,29.85,WNW,291,4.0,9.0,62,0.00,,,0.00,Wunderground v.1.15,2013-03-02 14:07:00,
2013-03-02 09:12:00,33.4,21.8,29.85,WNW,301,3.0,13.0,62,0.00,,,0.00,Wunderground v.1.15,2013-03-02 14:12:00,
2013-03-02 09:18:00,33.4,21.8,29.85,North,3,3.0,13.0,62,0.00,,,0.00,Wunderground v.1.15,2013-03-02 14:18:00,
2013-03-02 09:23:00,33.4,22.1,29.85,North,10,2.0,9.0,63,0.00,,,0.00,Wunderground v.1.15,2013-03-02 14:23:00,
2013-03-02 09:28:00,33.4,22.1,29.85,NNW,329,3.0,9.0,63,0.00,,,0.00,Wunderground v.1.15,2013-03-02 14:28:00,
2013-03-02 09:33:00,33.4,22.1,29.85,NW,320,2.0,3.0,63,0.00,,,0.00,Wunderground v.1.15,2013-03-02 14:33:00,
2013-03-02 09:39:00,33.4,21.8,29.85,West,274,2.0,7.0,62,0.00,,,0.00,Wunderground v.1.15,2013-03-02 14:39:00,
2013-03-02 09:44:00,33.4,21.8,29.85,NNW,329,3.0,7.0,62,0.00,,,0.00,Wunderground v.1.15,2013-03-02 14:44:00,
2013-03-02 09:49:00,33.4,21.8,29.85,NW,309,3.0,7.0,62,0.00,,,0.00,Wunderground v.1.15,2013-03-02 14:49:00,
2013-03-02 09:56:00,33.2,21.2,29.85,NNW,330,3.0,7.0,61,0.00,,,0.00,Wunderground v.1.15,2013-03-02 14:56:00,
2013-03-02 10:01:00,33.2,21.2,29.85,North,0,4.0,4.0,61,0.00,,,0.00,Wunderground v.1.15,2013-03-02 15:01:00,
2013-03-02 10:07:00,33.1,21.1,29.85,NW,319,3.0,6.0,61,0.00,,,0.00,Wunderground v.1.15,2013-03-02 15:07:00,
2013-03-02 10:12:00,33.1,21.1,29.85,North,356,3.0,3.0,61,0.00,,,0.00,Wunderground v.1.15,2013-03-02 15:12:00,
2013-03-02 10:17:00,32.9,20.9,29.85,WNW,301,2.0,3.0,61,0.00,,,0.00,Wunderground v.1.15,2013-03-02 15:17:00,
2013-03-02 10:22:00,33.1,21.1,29.85,WNW,288,2.0,7.0,61,0.00,,,0.00,Wunderground v.1.15,2013-03-02 15:22:00,
2013-03-02 10:28:00,33.1,21.1,29.85,NW,306,2.0,7.0,61,0.00,,,0.00,Wunderground v.1.15,2013-03-02 15:28:00,
2013-03-02 10:33:00,33.5,21.1,29.85,NW,309,1.0,1.0,60,0.00,,,0.00,Wunderground v.1.15,2013-03-02 15:33:00,
2013-03-02 10:38:00,33.8,21.0,29.85,NNW,339,1.0,4.0,59,0.00,,,0.00,Wunderground v.1.15,2013-03-02 15:38:00,
2013-03-02 10:43:00,34.3,21.4,29.85,NNE,23,1.0,4.0,59,0.00,,,0.00,Wunderground v.1.15,2013-03-02 15:43:00,
2013-03-02 10:49:00,34.4,21.5,29.85,WSW,248,2.0,4.0,59,0.00,,,0.00,Wunderground v.1.15,2013-03-02 15:49:00,
2013-03-02 10:54:00,34.4,21.5,29.85,North,0,4.0,7.0,59,0.00,,,0.00,Wunderground v.1.15,2013-03-02 15:54:00,
2013-03-02 10:59:00,34.3,20.6,29.85,NNW,336,4.0,8.0,57,0.00,,,0.00,Wunderground v.1.15,2013-03-02 15:59:00,
2013-03-02 11:06:00,34.3,21.0,29.85,North,0,2.0,4.0,58,0.00,,,0.00,Wunderground v.1.15,2013-03-02 16:06:00,
2013-03-02 11:11:00,34.4,21.1,29.85,NNW,329,1.0,1.0,58,0.00,,,0.00,Wunderground v.1.15,2013-03-02 16:11:00,
2013-03-02 11:16:00,34.4,20.7,29.84,WNW,295,2.0,4.0,57,0.00,,,0.00,Wunderground v.1.15,2013-03-02 16:16:00,
2013-03-02 11:22:00,34.4,20.7,29.84,West,277,2.0,4.0,57,0.00,,,0.00,Wunderground v.1.15,2013-03-02 16:22:00,
2013-03-02 11:27:00,34.4,20.3,29.84,WSW,244,2.0,8.0,56,0.00,,,0.00,Wunderground v.1.15,2013-03-02 16:27:00,
2013-03-02 11:32:00,34.3,19.8,29.84,NW,318,4.0,4.0,55,0.00,,,0.00,Wunderground v.1.15,2013-03-02 16:32:00,
2013-03-02 11:37:00,34.3,19.8,29.84,West,281,3.0,4.0,55,0.00,,,0.00,Wunderground v.1.15,2013-03-02 16:37:00,
2013-03-02 11:42:00,34.4,19.9,29.84,North,353,1.0,1.0,55,0.00,,,0.00,Wunderground v.1.15,2013-03-02 16:42:00,
2013-03-02 11:47:00,34.4,19.9,29.84,North,0,1.0,2.0,55,0.00,,,0.00,Wunderground v.1.15,2013-03-02 16:47:00,
2013-03-02 11:52:00,34.6,20.1,29.84,North,6,2.0,4.0,55,0.00,,,0.00,Wunderground v.1.15,2013-03-02 16:52:00,
2013-03-02 11:57:00,34.7,19.7,29.84,NNW,333,3.0,8.0,54,0.00,,,0.00,Wunderground v.1.15,2013-03-02 16:57:00,
2013-03-02 12:02:00,34.7,19.7,29.83,WNW,288,3.0,9.0,54,0.00,,,0.00,Wunderground v.1.15,2013-03-02 17:02:00,
2013-03-02 12:08:00,34.7,19.3,29.83,West,275,4.0,9.0,53,0.00,,,0.00,Wunderground v.1.15,2013-03-02 17:08:00,
2013-03-02 12:13:00,34.9,19.9,29.83,NNW,342,2.0,3.0,54,0.00,,,0.00,Wunderground v.1.15,2013-03-02 17:13:00,
2013-03-02 12:18:00,34.9,19.9,29.82,North,353,2.0,7.0,54,0.00,,,0.00,Wunderground v.1.15,2013-03-02 17:18:00,
2013-03-02 12:24:00,34.9,19.5,29.82,NNW,335,4.0,9.0,53,0.00,,,0.00,Wunderground v.1.15,2013-03-02 17:24:00,
2013-03-02 12:31:00,34.9,19.5,29.82,NW,323,2.0,2.0,53,0.00,,,0.00,Wunderground v.1.15,2013-03-02 17:31:00,
2013-03-02 12:36:00,35.0,19.6,29.82,NNW,346,2.0,7.0,53,0.00,,,0.00,Wunderground v.1.15,2013-03-02 17:36:00,
2013-03-02 12:41:00,35.0,19.6,29.82,NW,305,2.0,2.0,53,0.00,,,0.00,Wunderground v.1.15,2013-03-02 17:41:00,
2013-03-02 12:46:00,35.0,19.6,29.81,NW,323,3.0,6.0,53,0.00,,,0.00,Wunderground v.1.15,2013-03-02 17:46:00,
2013-03-02 12:51:00,35.2,19.8,29.81,NNW,329,2.0,2.0,53,0.00,,,0.00,Wunderground v.1.15,2013-03-02 17:51:00,
2013-03-02 12:57:00,35.2,20.2,29.81,WSW,258,2.0,9.0,54,0.00,,,0.00,Wunderground v.1.15,2013-03-02 17:57:00,
2013-03-02 13:02:00,35.3,20.3,29.81,West,278,3.0,4.0,54,0.00,,,0.00,Wunderground v.1.15,2013-03-02 18:02:00,
2013-03-02 13:07:00,35.3,20.3,29.81,NW,316,4.0,8.0,54,0.00,,,0.00,Wunderground v.1.15,2013-03-02 18:07:00,
2013-03-02 13:12:00,35.5,20.9,29.81,NW,309,5.0,6.0,55,0.00,,,0.00,Wunderground v.1.15,2013-03-02 18:12:00,
2013-03-02 13:17:00,35.6,20.6,29.80,NW,304,5.0,6.0,54,0.00,,,0.00,Wunderground v.1.15,2013-03-02 18:17:00,
2013-03-02 13:22:00,35.6,20.6,29.80,NW,320,4.0,4.0,54,0.00,,,0.00,Wunderground v.1.15,2013-03-02 18:22:00,
2013-03-02 13:27:00,35.8,20.3,29.80,NW,313,4.0,6.0,53,0.00,,,0.00,Wunderground v.1.15,2013-03-02 18:27:00,
2013-03-02 13:32:00,35.6,20.1,29.79,West,261,3.0,7.0,53,0.00,,,0.00,Wunderground v.1.15,2013-03-02 18:32:00,
2013-03-02 13:37:00,35.8,20.8,29.79,NNW,329,3.0,7.0,54,0.00,,,0.00,Wunderground v.1.15,2013-03-02 18:37:00,
2013-03-02 13:42:00,35.8,20.3,29.79,North,6,4.0,6.0,53,0.00,,,0.00,Wunderground v.1.15,2013-03-02 18:42:00,
2013-03-02 13:48:00,35.5,20.9,29.79,NW,322,5.0,8.0,55,0.00,,,0.00,Wunderground v.1.15,2013-03-02 18:48:00,
2013-03-02 13:53:00,35.8,21.2,29.79,NW,309,4.0,7.0,55,0.00,,,0.00,Wunderground v.1.15,2013-03-02 18:53:00,
2013-03-02 13:58:00,35.6,20.6,29.79,NNW,343,3.0,7.0,54,0.00,,,0.00,Wunderground v.1.15,2013-03-02 18:58:00,
2013-03-02 14:04:00,35.9,21.3,29.79,NNW,332,2.0,6.0,55,0.00,,,0.00,Wunderground v.1.15,2013-03-02 19:04:00,
2013-03-02 14:09:00,36.3,21.7,29.79,WNW,285,1.0,8.0,55,0.00,,,0.00,Wunderground v.1.15,2013-03-02 19:09:00,
2013-03-02 14:14:00,35.9,20.9,29.79,NW,320,3.0,7.0,54,0.00,,,0.00,Wunderground v.1.15,2013-03-02 19:14:00,
2013-03-02 14:19:00,35.9,20.9,29.79,NW,315,5.0,7.0,54,0.00,,,0.00,Wunderground v.1.15,2013-03-02 19:19:00,
2013-03-02 14:26:00,36.0,20.9,29.79,NW,311,4.0,7.0,54,0.00,,,0.00,Wunderground v.1.15,2013-03-02 19:26:00,
2013-03-02 14:32:00,36.2,21.1,29.79,NNW,336,3.0,4.0,54,0.00,,,0.00,Wunderground v.1.15,2013-03-02 19:32:00,
2013-03-02 14:37:00,36.2,20.7,29.79,North,357,5.0,11.0,53,0.00,,,0.00,Wunderground v.1.15,2013-03-02 19:37:00,
2013-03-02 14:42:00,36.2,20.7,29.79,North,0,5.0,5.0,53,0.00,,,0.00,Wunderground v.1.15,2013-03-02 19:42:00,
2013-03-02 14:47:00,36.2,20.7,29.79,NW,316,3.0,5.0,53,0.00,,,0.00,Wunderground v.1.15,2013-03-02 19:47:00,
2013-03-02 14:53:00,36.2,20.7,29.79,North,0,2.0,6.0,53,0.00,,,0.00,Wunderground v.1.15,2013-03-02 19:53:00,
2013-03-02 14:58:00,36.2,20.2,29.79,NNE,13,3.0,6.0,52,0.00,,,0.00,Wunderground v.1.15,2013-03-02 19:58:00,
2013-03-02 15:03:00,36.2,20.2,29.79,North,0,4.0,6.0,52,0.00,,,0.00,Wunderground v.1.15,2013-03-02 20:03:00,
2013-03-02 15:09:00,36.5,21.0,29.79,North,0,3.0,7.0,53,0.00,,,0.00,Wunderground v.1.15,2013-03-02 20:09:00,
2013-03-02 15:14:00,36.5,20.1,29.79,West,272,3.0,8.0,51,0.00,,,0.00,Wunderground v.1.15,2013-03-02 20:14:00,
2013-03-02 15:19:00,36.5,20.1,29.79,NW,308,4.0,6.0,51,0.00,,,0.00,Wunderground v.1.15,2013-03-02 20:19:00,
2013-03-02 15:24:00,36.6,20.2,29.79,North,0,4.0,8.0,51,0.00,,,0.00,Wunderground v.1.15,2013-03-02 20:24:00,
2013-03-02 15:29:00,36.6,19.7,29.78,WNW,301,5.0,5.0,50,0.00,,,0.00,Wunderground v.1.15,2013-03-02 20:29:00,
2013-03-02 15:34:00,36.6,19.7,29.78,WNW,288,5.0,6.0,50,0.00,,,0.00,Wunderground v.1.15,2013-03-02 20:34:00,
2013-03-02 15:41:00,36.6,20.2,29.78,NNW,347,3.0,4.0,51,0.00,,,0.00,Wunderground v.1.15,2013-03-02 20:41:00,
2013-03-02 15:46:00,36.6,20.2,29.78,NW,313,4.0,8.0,51,0.00,,,0.00,Wunderground v.1.15,2013-03-02 20:46:00,
2013-03-02 15:51:00,36.5,20.5,29.78,North,356,5.0,5.0,52,0.00,,,0.00,Wunderground v.1.15,2013-03-02 20:51:00,
2013-03-02 15:56:00,36.5,21.0,29.78,WNW,291,4.0,6.0,53,0.00,,,0.00,Wunderground v.1.15,2013-03-02 20:56:00,
2013-03-02 16:01:00,36.5,21.0,29.78,NW,326,2.0,2.0,53,0.00,,,0.00,Wunderground v.1.15,2013-03-02 21:01:00,
2013-03-02 16:07:00,36.5,21.0,29.78,West,277,3.0,9.0,53,0.00,,,0.00,Wunderground v.1.15,2013-03-02 21:07:00,
2013-03-02 16:12:00,36.5,21.0,29.78,NNW,339,3.0,7.0,53,0.00,,,0.00,Wunderground v.1.15,2013-03-02 21:12:00,
2013-03-02 16:17:00,36.5,21.0,29.79,East,85,2.0,7.0,53,0.00,,,0.00,Wunderground v.1.15,2013-03-02 21:17:00,
2013-03-02 16:22:00,36.5,21.4,29.79,WNW,295,3.0,8.0,54,0.00,,,0.00,Wunderground v.1.15,2013-03-02 21:22:00,
2013-03-02 16:27:00,36.3,21.2,29.79,NW,320,3.0,8.0,54,0.00,,,0.00,Wunderground v.1.15,2013-03-02 21:27:00,
2013-03-02 16:32:00,36.3,21.7,29.79,North,353,4.0,4.0,55,0.00,,,0.00,Wunderground v.1.15,2013-03-02 21:32:00,
2013-03-02 16:37:00,36.3,21.7,29.79,NW,311,2.0,4.0,55,0.00,,,0.00,Wunderground v.1.15,2013-03-02 21:37:00,
2013-03-02 16:42:00,36.3,22.1,29.79,West,280,2.0,7.0,56,0.00,,,0.00,Wunderground v.1.15,2013-03-02 21:42:00,
2013-03-02 16:48:00,36.3,22.5,29.79,NW,308,2.0,7.0,57,0.00,,,0.00,Wunderground v.1.15,2013-03-02 21:48:00,
2013-03-02 16:53:00,36.3,22.5,29.79,NW,318,2.0,4.0,57,0.00,,,0.00,Wunderground v.1.15,2013-03-02 21:53:00,
2013-03-02 16:58:00,36.3,22.5,29.79,SW,234,3.0,9.0,57,0.00,,,0.00,Wunderground v.1.15,2013-03-02 21:58:00,
2013-03-02 17:04:00,36.0,23.0,29.79,West,271,5.0,9.0,59,0.00,,,0.00,Wunderground v.1.15,2013-03-02 22:04:00,
2013-03-02 17:09:00,35.8,23.3,29.79,WNW,296,4.0,9.0,60,0.00,,,0.00,Wunderground v.1.15,2013-03-02 22:09:00,
2013-03-02 17:14:00,35.6,23.5,29.79,WNW,301,3.0,6.0,61,0.00,,,0.00,Wunderground v.1.15,2013-03-02 22:14:00,
2013-03-02 17:19:00,35.3,23.2,29.79,NNW,336,4.0,6.0,61,0.00,,,0.00,Wunderground v.1.15,2013-03-02 22:19:00,
2013-03-02 17:24:00,35.2,23.1,29.79,NW,319,3.0,6.0,61,0.00,,,0.00,Wunderground v.1.15,2013-03-02 22:24:00,
2013-03-02 17:31:00,35.0,22.9,29.80,North,0,3.0,3.0,61,0.00,,,0.00,Wunderground v.1.15,2013-03-02 22:31:00,
2013-03-02 17:36:00,34.9,22.8,29.80,WNW,295,3.0,7.0,61,0.00,,,0.00,Wunderground v.1.15,2013-03-02 22:36:00,
2013-03-02 17:41:00,34.7,23.0,29.80,West,267,3.0,3.0,62,0.00,,,0.00,Wunderground v.1.15,2013-03-02 22:41:00,
2013-03-02 17:46:00,34.6,22.9,29.81,WNW,292,4.0,7.0,62,0.00,,,0.00,Wunderground v.1.15,2013-03-02 22:46:00,
2013-03-02 17:51:00,34.3,22.6,29.81,WNW,301,5.0,6.0,62,0.00,,,0.00,Wunderground v.1.15,2013-03-02 22:51:00,
2013-03-02 17:56:00,34.3,22.6,29.81,NW,322,5.0,8.0,62,0.00,,,0.00,Wunderground v.1.15,2013-03-02 22:56:00,
2013-03-02 18:01:00,34.1,22.8,29.81,WNW,301,3.0,3.0,63,0.00,,,0.00,Wunderground v.1.15,2013-03-02 23:01:00,
2013-03-02 18:07:00,34.0,22.7,29.81,NW,319,2.0,7.0,63,0.00,,,0.00,Wunderground v.1.15,2013-03-02 23:07:00,
2013-03-02 18:12:00,33.8,22.5,29.81,NW,304,2.0,3.0,63,0.00,,,0.00,Wunderground v.1.15,2013-03-02 23:12:00,
2013-03-02 18:17:00,33.7,22.4,29.81,WNW,289,1.0,3.0,63,0.00,,,0.00,Wunderground v.1.15,2013-03-02 23:17:00,
2013-03-02 18:22:00,33.5,22.2,29.81,NW,305,1.0,1.0,63,0.00,,,0.00,Wunderground v.1.15,2013-03-02 23:22:00,
2013-03-02 18:27:00,33.4,22.5,29.81,WNW,301,1.0,2.0,64,0.00,,,0.00,Wunderground v.1.15,2013-03-02 23:27:00,
2013-03-02 18:32:00,33.4,22.5,29.82,NW,304,2.0,4.0,64,0.00,,,0.00,Wunderground v.1.15,2013-03-02 23:32:00,
2013-03-02 18:37:00,33.2,22.3,29.82,NW,308,2.0,4.0,64,0.00,,,0.00,Wunderground v.1.15,2013-03-02 23:37:00,
2013-03-02 18:42:00,33.1,22.2,29.82,NW,326,2.0,4.0,64,0.00,,,0.00,Wunderground v.1.15,2013-03-02 23:42:00,
2013-03-02 18:47:00,32.9,22.0,29.82,WNW,291,2.0,4.0,64,0.00,,,0.00,Wunderground v.1.15,2013-03-02 23:47:00,
2013-03-02 18:53:00,32.9,22.0,29.82,West,270,1.0,10.0,64,0.00,,,0.00,Wunderground v.1.15,2013-03-02 23:53:00,
2013-03-02 18:58:00,32.8,22.0,29.82,WNW,294,2.0,10.0,64,0.00,,,0.00,Wunderground v.1.15,2013-03-02 23:58:00,
2013-03-02 19:03:00,32.7,21.9,29.82,WNW,296,2.0,4.0,64,0.00,,,0.00,Wunderground v.1.15,2013-03-03 00:03:00,
2013-03-02 19:08:00,32.7,21.5,29.82,WNW,291,2.0,13.0,63,0.00,,,0.00,Wunderground v.1.15,2013-03-03 00:08:00,
2013-03-02 19:13:00,32.5,21.7,29.82,WNW,287,2.0,2.0,64,0.00,,,0.00,Wunderground v.1.15,2013-03-03 00:13:00,
2013-03-02 19:19:00,32.5,21.7,29.82,WNW,288,1.0,6.0,64,0.00,,,0.00,Wunderground v.1.15,2013-03-03 00:19:00,
2013-03-02 19:24:00,32.4,21.6,29.82,NW,325,2.0,4.0,64,0.00,,,0.00,Wunderground v.1.15,2013-03-03 00:24:00,
2013-03-02 19:29:00,32.4,21.9,29.82,WNW,284,2.0,6.0,65,0.00,,,0.00,Wunderground v.1.15,2013-03-03 00:29:00,
2013-03-02 19:34:00,32.2,21.7,29.82,WNW,296,2.0,8.0,65,0.00,,,0.00,Wunderground v.1.15,2013-03-03 00:34:00,
2013-03-02 19:39:00,32.1,21.7,29.82,WNW,292,2.0,8.0,65,0.00,,,0.00,Wunderground v.1.15,2013-03-03 00:39:00,
2013-03-02 19:44:00,32.1,21.7,29.82,North,350,2.0,10.0,65,0.00,,,0.00,Wunderground v.1.15,2013-03-03 00:44:00,
2013-03-02 19:49:00,31.9,21.5,29.82,NW,315,3.0,10.0,65,0.00,,,0.00,Wunderground v.1.15,2013-03-03 00:49:00,
2013-03-02 19:54:00,31.9,21.5,29.82,NW,326,3.0,6.0,65,0.00,,,0.00,Wunderground v.1.15,2013-03-03 00:54:00,
2013-03-02 20:01:00,31.8,21.0,29.82,WSW,241,2.0,2.0,64,0.00,,,0.00,Wunderground v.1.15,2013-03-03 01:01:00,
2013-03-02 20:07:00,31.8,21.0,29.82,NNW,339,3.0,7.0,64,0.00,,,0.00,Wunderground v.1.15,2013-03-03 01:07:00,
2013-03-02 20:12:00,31.6,20.4,29.82,NNW,346,5.0,5.0,63,0.00,,,0.00,Wunderground v.1.15,2013-03-03 01:12:00,
2013-03-02 20:17:00,31.6,20.1,29.82,WNW,288,3.0,5.0,62,0.00,,,0.00,Wunderground v.1.15,2013-03-03 01:17:00,
2013-03-02 20:22:00,31.6,20.1,29.82,North,354,1.0,1.0,62,0.00,,,0.00,Wunderground v.1.15,2013-03-03 01:22:00,
2013-03-02 20:27:00,31.5,20.0,29.82,WNW,298,1.0,9.0,62,0.00,,,0.00,Wunderground v.1.15,2013-03-03 01:27:00,
2013-03-02 20:32:00,31.5,20.0,29.82,NW,322,1.0,4.0,62,0.00,,,0.00,Wunderground v.1.15,2013-03-03 01:32:00,
2013-03-02 20:37:00,31.3,19.8,29.82,NW,306,2.0,6.0,62,0.00,,,0.00,Wunderground v.1.15,2013-03-03 01:37:00,
2013-03-02 20:42:00,31.3,19.8,29.82,NW,304,3.0,6.0,62,0.00,,,0.00,Wunderground v.1.15,2013-03-03 01:42:00,
2013-03-02 20:47:00,31.2,20.1,29.83,NW,311,2.0,6.0,63,0.00,,,0.00,Wunderground v.1.15,2013-03-03 01:47:00,
2013-03-02 20:52:00,31.2,19.7,29.83,NNW,342,2.0,7.0,62,0.00,,,0.00,Wunderground v.1.15,2013-03-03 01:52:00,
2013-03-02 20:57:00,31.0,19.5,29.83,West,271,4.0,7.0,62,0.00,,,0.00,Wunderground v.1.15,2013-03-03 01:57:00,
2013-03-02 21:03:00,31.0,19.5,29.83,WNW,294,2.0,8.0,62,0.00,,,0.00,Wunderground v.1.15,2013-03-03 02:03:00,
2013-03-02 21:08:00,31.0,19.5,29.83,WNW,301,2.0,8.0,62,0.00,,,0.00,Wunderground v.1.15,2013-03-03 02:08:00,
2013-03-02 21:13:00,30.9,19.4,29.83,NW,315,2.0,4.0,62,0.00,,,0.00,Wunderground v.1.15,2013-03-03 02:13:00,
2013-03-02 21:18:00,30.9,19.4,29.83,NNW,346,2.0,8.0,62,0.00,,,0.00,Wunderground v.1.15,2013-03-03 02:18:00,
2013-03-02 21:23:00,30.9,19.4,29.83,NW,308,2.0,2.0,62,0.00,,,0.00,Wunderground v.1.15,2013-03-03 02:23:00,
2013-03-02 21:28:00,30.7,19.2,29.83,NNW,329,2.0,6.0,62,0.00,,,0.00,Wunderground v.1.15,2013-03-03 02:28:00,
2013-03-02 21:33:00,30.7,19.6,29.83,NW,304,2.0,2.0,63,0.00,,,0.00,Wunderground v.1.15,2013-03-03 02:33:00,
2013-03-02 21:39:00,30.6,19.5,29.83,NNW,329,1.0,2.0,63,0.00,,,0.00,Wunderground v.1.15,2013-03-03 02:39:00,
2013-03-02 21:44:00,30.6,19.5,29.83,WNW,291,0.0,2.0,63,0.00,,,0.00,Wunderground v.1.15,2013-03-03 02:44:00,
2013-03-02 21:49:00,30.4,19.3,29.83,West,267,1.0,4.0,63,0.00,,,0.00,Wunderground v.1.15,2013-03-03 02:49:00,
2013-03-02 21:54:00,30.4,19.3,29.83,NNW,333,1.0,2.0,63,0.00,,,0.00,Wunderground v.1.15,2013-03-03 02:54:00,
2013-03-02 22:01:00,30.4,19.3,29.83,NW,311,2.0,2.0,63,0.00,,,0.00,Wunderground v.1.15,2013-03-03 03:01:00,
2013-03-02 22:07:00,30.4,19.3,29.83,North,0,2.0,4.0,63,0.00,,,0.00,Wunderground v.1.15,2013-03-03 03:07:00,
2013-03-02 22:12:00,30.3,19.6,29.83,West,271,1.0,4.0,64,0.00,,,0.00,Wunderground v.1.15,2013-03-03 03:12:00,
2013-03-02 22:17:00,30.3,19.6,29.83,NW,323,1.0,4.0,64,0.00,,,0.00,Wunderground v.1.15,2013-03-03 03:17:00,
2013-03-02 22:22:00,30.3,19.6,29.83,NW,325,1.0,4.0,64,0.00,,,0.00,Wunderground v.1.15,2013-03-03 03:22:00,
2013-03-02 22:27:00,30.3,19.6,29.83,WNW,292,1.0,4.0,64,0.00,,,0.00,Wunderground v.1.15,2013-03-03 03:27:00,
2013-03-02 22:32:00,30.1,19.4,29.83,NW,323,1.0,6.0,64,0.00,,,0.00,Wunderground v.1.15,2013-03-03 03:32:00,
2013-03-02 22:37:00,30.1,19.4,29.83,WNW,301,1.0,6.0,64,0.00,,,0.00,Wunderground v.1.15,2013-03-03 03:37:00,
2013-03-02 22:42:00,30.1,19.4,29.83,WNW,285,1.0,6.0,64,0.00,,,0.00,Wunderground v.1.15,2013-03-03 03:42:00,
2013-03-02 22:47:00,30.1,19.7,29.83,NNW,339,2.0,6.0,65,0.00,,,0.00,Wunderground v.1.15,2013-03-03 03:47:00,
2013-03-02 22:52:00,30.1,19.7,29.83,SE,140,3.0,3.0,65,0.00,,,0.00,Wunderground v.1.15,2013-03-03 03:52:00,
2013-03-02 22:58:00,30.1,19.7,29.83,NNW,342,1.0,3.0,65,0.00,,,0.00,Wunderground v.1.15,2013-03-03 03:58:00,
2013-03-02 23:03:00,30.0,19.7,29.82,WNW,301,2.0,6.0,65,0.00,,,0.00,Wunderground v.1.15,2013-03-03 04:03:00,
2013-03-02 23:08:00,30.0,19.7,29.82,NNW,336,2.0,6.0,65,0.00,,,0.00,Wunderground v.1.15,2013-03-03 04:08:00,
2013-03-02 23:13:00,30.0,19.7,29.82,WNW,285,2.0,6.0,65,0.00,,,0.00,Wunderground v.1.15,2013-03-03 04:13:00,
2013-03-02 23:18:00,30.0,19.7,29.82,NW,311,1.0,6.0,65,0.00,,,0.00,Wunderground v.1.15,2013-03-03 04:18:00,
2013-03-02 23:23:00,30.0,19.7,29.82,NNW,333,1.0,10.0,65,0.00,,,0.00,Wunderground v.1.15,2013-03-03 04:23:00,
2013-03-02 23:28:00,30.0,19.7,29.82,NW,306,1.0,10.0,65,0.00,,,0.00,Wunderground v.1.15,2013-03-03 04:28:00,
2013-03-02 23:33:00,30.0,19.7,29.82,West,270,1.0,7.0,65,0.00,,,0.00,Wunderground v.1.15,2013-03-03 04:33:00,
2013-03-02 23:39:00,29.8,19.5,29.82,WNW,285,2.0,8.0,65,0.00,,,0.00,Wunderground v.1.15,2013-03-03 04:39:00,
2013-03-02 23:44:00,29.8,19.8,29.82,NW,312,3.0,7.0,66,0.00,,,0.00,Wunderground v.1.15,2013-03-03 04:44:00,
2013-03-02 23:49:00,29.8,19.8,29.82,NW,304,3.0,9.0,66,0.00,,,0.00,Wunderground v.1.15,2013-03-03 04:49:00,
2013-03-02 23:54:00,29.8,19.8,29.82,North,0,2.0,7.0,66,0.00,,,0.00,Wunderground v.1.15,2013-03-03 04:54:00,
2013-03-02 23:59:00,29.8,19.8,29.82,WNW,295,2.0,7.0,66,0.00,,,0.00,Wunderground v.1.15,2013-03-03 04:59:00,